Time;durP1;ratioP1;P1;durP2;ratioP2;P2;SDS_P1;SDS_P2;PMS_P1;PMS_P2;Temp;Humidity;BMP_temperature;BMP_pressure;BME280_temperature;BME280_humidity;BME280_pressure;Samples;Min_cycle;Max_cycle;Signal;HPM_P1;HPM_P2
2021/10/26 00:00:26;;;;;;;13.70;12.60;;;6.20;99.90;;;;;;5082843;28;20655;-77
2021/10/26 00:02:54;;;;;;;14.07;12.77;;;6.10;99.90;;;;;;5082542;28;20198;-77
2021/10/26 00:05:22;;;;;;;14.90;13.67;;;6.10;99.90;;;;;;5081803;28;20727;-76
2021/10/26 00:07:49;;;;;;;13.57;12.27;;;6.00;99.90;;;;;;5083251;28;20235;-77
2021/10/26 00:10:16;;;;;;;14.03;12.70;;;5.90;99.90;;;;;;5083493;28;20238;-77
2021/10/26 00:12:43;;;;;;;13.80;12.70;;;5.80;99.90;;;;;;5081461;28;20257;-77
2021/10/26 00:15:11;;;;;;;14.13;12.93;;;5.80;99.90;;;;;;5083550;28;20198;-77
2021/10/26 00:17:38;;;;;;;13.40;12.37;;;5.70;99.90;;;;;;5083125;28;20199;-76
2021/10/26 00:20:06;;;;;;;15.27;13.87;;;5.60;99.90;;;;;;5083151;28;20267;-76
2021/10/26 00:22:34;;;;;;;15.83;14.30;;;5.60;99.90;;;;;;5080186;28;20208;-76
2021/10/26 00:25:01;;;;;;;15.10;13.77;;;5.50;99.90;;;;;;5083339;28;20683;-77
2021/10/26 00:27:28;;;;;;;14.70;13.50;;;5.50;99.90;;;;;;5082135;28;20244;-77
2021/10/26 00:29:55;;;;;;;15.53;14.13;;;5.60;99.90;;;;;;5081803;28;20653;-78
2021/10/26 00:32:22;;;;;;;14.97;13.47;;;5.60;99.90;;;;;;5080497;28;20229;-76
2021/10/26 00:34:49;;;;;;;15.20;13.70;;;5.70;99.90;;;;;;5081699;28;20557;-77
2021/10/26 00:37:16;;;;;;;15.07;13.67;;;5.70;99.90;;;;;;5081815;28;20198;-77
2021/10/26 00:39:45;;;;;;;15.60;14.20;;;5.70;99.90;;;;;;5081114;28;20276;-77
2021/10/26 00:42:13;;;;;;;13.83;12.63;;;5.80;99.90;;;;;;5081975;28;20255;-76
2021/10/26 00:44:40;;;;;;;15.07;13.63;;;5.90;99.90;;;;;;5079208;28;20202;-77
2021/10/26 00:47:07;;;;;;;13.93;12.73;;;5.90;99.90;;;;;;5081923;28;20577;-77
2021/10/26 00:49:35;;;;;;;14.57;13.27;;;5.90;99.90;;;;;;5079824;28;20214;-77
2021/10/26 00:52:03;;;;;;;14.90;13.70;;;6.00;99.90;;;;;;5083058;28;20600;-77
2021/10/26 00:54:30;;;;;;;14.93;13.63;;;6.00;99.90;;;;;;5081999;28;20213;-76
2021/10/26 00:57:07;;;;;;;16.37;14.97;;;6.10;99.90;;;;;;5081839;28;20666;-78
2021/10/26 00:59:34;;;;;;;14.37;13.17;;;6.10;99.90;;;;;;5079872;28;20816;-77
2021/10/26 01:02:02;;;;;;;16.53;15.03;;;6.20;99.90;;;;;;5078291;28;20200;-77
2021/10/26 01:04:29;;;;;;;15.50;14.10;;;6.20;99.90;;;;;;5078989;28;20285;-77
2021/10/26 01:06:58;;;;;;;16.03;14.63;;;6.20;99.90;;;;;;5078216;28;20217;-77
2021/10/26 01:09:28;;;;;;;14.97;13.67;;;6.20;99.90;;;;;;5077991;28;20221;-77
2021/10/26 01:11:55;;;;;;;16.80;15.10;;;6.20;99.90;;;;;;5078287;28;20206;-77
2021/10/26 01:14:25;;;;;;;14.57;13.37;;;6.20;99.90;;;;;;5081788;28;20689;-77
2021/10/26 01:17:04;;;;;;;15.57;14.17;;;6.20;99.90;;;;;;5070425;28;20190;-77
2021/10/26 01:19:43;;;;;;;15.27;14.03;;;6.20;99.90;;;;;;5079200;28;20233;-77
2021/10/26 01:22:10;;;;;;;15.27;13.93;;;6.10;99.90;;;;;;5077287;28;20194;-77
2021/10/26 01:24:37;;;;;;;15.07;13.80;;;6.20;99.90;;;;;;5081950;28;20202;-77
2021/10/26 01:27:05;;;;;;;15.20;13.90;;;6.20;99.90;;;;;;5075642;28;20201;-77
2021/10/26 01:29:33;;;;;;;15.40;14.10;;;6.20;99.90;;;;;;5082982;28;20214;-77
2021/10/26 01:32:03;;;;;;;15.20;13.60;;;6.20;99.90;;;;;;5079004;28;20282;-77
2021/10/26 01:34:36;;;;;;;14.77;13.47;;;6.20;99.90;;;;;;5083672;28;20240;-77
2021/10/26 01:37:06;;;;;;;15.40;14.10;;;6.20;99.90;;;;;;5084215;28;20719;-77
2021/10/26 01:39:35;;;;;;;14.70;13.40;;;6.20;99.90;;;;;;5080254;28;20272;-77
2021/10/26 01:42:04;;;;;;;14.33;13.23;;;6.20;99.90;;;;;;5083311;28;20277;-77
2021/10/26 01:44:31;;;;;;;13.97;12.97;;;6.20;99.90;;;;;;5082392;28;20230;-77
2021/10/26 01:47:06;;;;;;;14.50;13.30;;;6.30;99.90;;;;;;5082512;28;20190;-77
2021/10/26 01:49:33;;;;;;;14.63;13.43;;;6.30;99.90;;;;;;5083381;28;20222;-77
2021/10/26 01:52:02;;;;;;;14.00;12.90;;;6.40;99.90;;;;;;5079570;28;20218;-77
2021/10/26 01:54:35;;;;;;;13.93;12.80;;;6.40;99.90;;;;;;5077280;28;20203;-77
2021/10/26 01:57:03;;;;;;;14.10;12.97;;;6.40;99.90;;;;;;5115255;27;20214;-76
2021/10/26 01:59:41;;;;;;;15.20;14.00;;;6.50;99.90;;;;;;5083402;28;20226;-77
2021/10/26 02:02:08;;;;;;;14.33;13.13;;;6.50;99.90;;;;;;5081991;28;20195;-77
2021/10/26 02:04:35;;;;;;;14.40;13.40;;;6.60;99.90;;;;;;5083511;28;20296;-77
2021/10/26 02:07:05;;;;;;;14.27;13.17;;;6.60;99.90;;;;;;5080409;28;20221;-76
2021/10/26 02:09:32;;;;;;;14.30;13.10;;;6.60;99.90;;;;;;5077057;28;20225;-77
2021/10/26 02:11:59;;;;;;;13.90;12.80;;;6.70;99.90;;;;;;5080082;28;20578;-77
2021/10/26 02:14:26;;;;;;;14.97;13.50;;;6.80;99.90;;;;;;5081068;28;20211;-77
2021/10/26 02:16:53;;;;;;;12.50;11.37;;;6.90;99.90;;;;;;5084614;28;20192;-76
2021/10/26 02:19:20;;;;;;;15.90;14.80;;;7.00;99.90;;;;;;5080903;28;20301;-77
2021/10/26 02:21:47;;;;;;;14.43;13.23;;;7.10;99.90;;;;;;5084861;28;20269;-77
2021/10/26 02:24:15;;;;;;;13.50;12.50;;;7.20;99.90;;;;;;5083231;28;20227;-77
2021/10/26 02:26:42;;;;;;;14.07;13.07;;;7.30;99.90;;;;;;5078828;28;20200;-77
2021/10/26 02:29:10;;;;;;;14.80;13.70;;;7.30;99.90;;;;;;5078186;28;20301;-77
2021/10/26 02:31:40;;;;;;;13.83;12.73;;;7.40;99.90;;;;;;5082650;28;20202;-78
2021/10/26 02:34:08;;;;;;;15.23;13.87;;;7.40;99.90;;;;;;5080732;28;20214;-77
2021/10/26 02:36:35;;;;;;;15.27;14.17;;;7.40;99.90;;;;;;5081253;28;20650;-76
2021/10/26 02:39:04;;;;;;;14.77;13.57;;;7.40;99.90;;;;;;5080255;28;20269;-77
2021/10/26 02:41:32;;;;;;;14.20;13.00;;;7.40;99.90;;;;;;5083830;28;20588;-77
2021/10/26 02:43:59;;;;;;;14.20;13.10;;;7.40;99.90;;;;;;5071471;28;20206;-76
2021/10/26 02:46:27;;;;;;;15.53;14.33;;;7.50;99.90;;;;;;5076460;28;20591;-76
2021/10/26 02:48:53;;;;;;;15.17;14.13;;;7.50;99.90;;;;;;5071013;28;20227;-77
2021/10/26 02:51:21;;;;;;;16.90;15.40;;;7.50;99.90;;;;;;5071983;28;20192;-77
2021/10/26 02:53:48;;;;;;;15.50;14.30;;;7.60;99.90;;;;;;5068022;28;20208;-77
2021/10/26 02:56:16;;;;;;;16.10;14.70;;;7.50;99.90;;;;;;5068897;28;20224;-77
2021/10/26 02:58:44;;;;;;;17.17;15.60;;;7.60;99.90;;;;;;5071993;28;20227;-77
2021/10/26 03:01:11;;;;;;;15.97;14.47;;;7.60;99.90;;;;;;5073263;28;20213;-77
2021/10/26 03:03:39;;;;;;;14.30;13.27;;;7.60;99.90;;;;;;5111367;27;20626;-77
2021/10/26 03:06:06;;;;;;;15.23;14.03;;;7.60;99.90;;;;;;5078415;28;20200;-76
2021/10/26 03:08:33;;;;;;;16.00;14.63;;;7.60;99.90;;;;;;5077819;28;20212;-76
2021/10/26 03:11:07;;;;;;;17.60;16.00;;;7.60;99.90;;;;;;5073262;28;20661;-76
2021/10/26 03:13:35;;;;;;;16.70;15.17;;;7.60;99.90;;;;;;5081357;28;20418;-76
2021/10/26 03:19:46;;;;;;;17.53;16.07;;;7.60;99.90;;;;;;5046002;28;20775;-75
2021/10/26 03:22:13;;;;;;;17.00;15.70;;;7.60;99.90;;;;;;5071045;28;20212;-75
2021/10/26 03:24:40;;;;;;;16.40;15.00;;;7.60;99.90;;;;;;5081381;28;20581;-75
2021/10/26 03:27:06;;;;;;;15.70;14.50;;;7.60;99.90;;;;;;5074916;28;20208;-75
2021/10/26 03:29:33;;;;;;;15.97;14.57;;;7.70;99.90;;;;;;5067697;28;20614;-75
2021/10/26 03:32:00;;;;;;;15.67;14.47;;;7.70;99.90;;;;;;5060567;28;20200;-75
2021/10/26 03:34:33;;;;;;;16.40;15.03;;;7.70;99.90;;;;;;5073299;28;20226;-76
2021/10/26 03:37:02;;;;;;;16.50;15.20;;;7.70;99.90;;;;;;5082492;28;20231;-76
2021/10/26 03:39:29;;;;;;;17.47;16.07;;;7.70;99.90;;;;;;5080753;28;20250;-76
2021/10/26 03:41:56;;;;;;;18.47;16.97;;;7.70;99.90;;;;;;5081937;28;20253;-76
2021/10/26 03:44:23;;;;;;;16.77;15.53;;;7.60;99.90;;;;;;5076318;28;20188;-76
2021/10/26 03:46:50;;;;;;;15.93;14.73;;;7.60;99.90;;;;;;5081070;28;20201;-76
2021/10/26 03:49:20;;;;;;;16.07;14.87;;;7.60;99.90;;;;;;5082570;28;20223;-76
2021/10/26 03:51:47;;;;;;;16.73;15.53;;;7.50;99.90;;;;;;5079099;28;20251;-76
2021/10/26 03:54:16;;;;;;;17.53;16.07;;;7.40;99.90;;;;;;5079173;28;20609;-75
2021/10/26 03:56:45;;;;;;;17.57;16.07;;;7.50;99.90;;;;;;5085352;28;20218;-76
2021/10/26 03:59:12;;;;;;;17.27;15.87;;;7.50;99.90;;;;;;5084623;28;20215;-75
2021/10/26 04:01:39;;;;;;;17.13;15.73;;;7.50;99.90;;;;;;5082455;28;20646;-75
2021/10/26 04:04:06;;;;;;;17.07;15.47;;;7.40;99.90;;;;;;5090968;28;20593;-74
2021/10/26 04:06:34;;;;;;;17.77;16.33;;;7.40;99.90;;;;;;5085416;28;20203;-76
2021/10/26 04:09:03;;;;;;;17.30;15.83;;;7.40;99.90;;;;;;5078125;28;20692;-74
2021/10/26 04:11:39;;;;;;;19.63;17.83;;;7.40;99.90;;;;;;5078991;28;20250;-75
2021/10/26 04:14:06;;;;;;;19.67;17.77;;;7.40;99.90;;;;;;5078672;28;20694;-75
2021/10/26 04:16:34;;;;;;;18.63;17.10;;;7.30;99.90;;;;;;5079985;28;20208;-76
2021/10/26 04:19:00;;;;;;;19.83;18.07;;;7.40;99.90;;;;;;5080389;28;20311;-76
2021/10/26 04:21:27;;;;;;;18.60;17.03;;;7.30;99.90;;;;;;5070195;28;20230;-76
2021/10/26 04:23:54;;;;;;;18.63;17.03;;;7.30;99.90;;;;;;5068568;28;20207;-76
2021/10/26 04:26:21;;;;;;;17.80;16.30;;;7.30;99.90;;;;;;5081937;28;20278;-76
2021/10/26 04:28:50;;;;;;;18.10;16.63;;;7.20;99.90;;;;;;5077836;28;20225;-76
2021/10/26 04:31:18;;;;;;;17.67;16.27;;;7.20;99.90;;;;;;5078458;28;20201;-76
2021/10/26 04:33:47;;;;;;;12.73;9.37;;;7.10;99.90;;;;;;5085947;28;20691;-76
2021/10/26 04:36:14;;;;;;;19.03;17.43;;;7.10;99.90;;;;;;5082851;28;20205;-77
2021/10/26 04:38:43;;;;;;;11.83;9.03;;;7.10;99.90;;;;;;5078867;28;20223;-76
2021/10/26 04:41:11;;;;;;;19.30;17.50;;;7.10;99.90;;;;;;5084354;28;20302;-77
2021/10/26 04:43:38;;;;;;;18.27;16.63;;;7.10;99.90;;;;;;5079921;28;20294;-76
2021/10/26 04:46:10;;;;;;;10.43;8.40;;;7.10;99.90;;;;;;5071535;28;20250;-76
2021/10/26 04:48:37;;;;;;;9.83;8.20;;;7.10;99.90;;;;;;5070848;28;20228;-76
2021/10/26 04:51:05;;;;;;;10.70;9.10;;;7.10;99.90;;;;;;5079674;28;20189;-76
2021/10/26 04:53:32;;;;;;;11.53;9.70;;;7.20;99.90;;;;;;5083544;28;20191;-75
2021/10/26 04:56:01;;;;;;;11.97;9.77;;;7.20;99.90;;;;;;5083170;28;20254;-75
2021/10/26 04:58:28;;;;;;;18.20;16.73;;;7.20;99.90;;;;;;5082634;28;20232;-75
2021/10/26 05:00:56;;;;;;;18.47;16.80;;;7.20;99.90;;;;;;5092728;28;20696;-75
2021/10/26 05:03:25;;;;;;;17.33;15.83;;;7.30;99.90;;;;;;5085942;28;20199;-75
2021/10/26 05:05:54;;;;;;;17.70;16.20;;;7.20;99.90;;;;;;5095608;28;20179;-75
2021/10/26 05:08:21;;;;;;;17.40;16.00;;;7.20;99.90;;;;;;5093550;28;20659;-75
2021/10/26 05:10:48;;;;;;;18.10;16.60;;;7.20;99.90;;;;;;5094212;28;20202;-75
2021/10/26 05:13:15;;;;;;;17.33;15.93;;;7.20;99.90;;;;;;5094156;28;20196;-76
2021/10/26 05:16:02;;;;;;;17.50;16.10;;;7.20;99.90;;;;;;5095853;28;20561;-76
2021/10/26 05:18:52;;;;;;;17.30;16.00;;;7.20;99.90;;;;;;5080248;28;20315;-75
2021/10/26 05:21:37;;;;;;;18.70;17.10;;;7.20;99.90;;;;;;5078792;28;20238;-77
2021/10/26 05:24:39;;;;;;;18.23;16.80;;;7.20;99.90;;;;;;5035243;28;20340;-77
2021/10/26 05:27:22;;;;;;;19.17;17.50;;;7.20;99.90;;;;;;5079863;28;20294;-77
2021/10/26 05:29:50;;;;;;;20.13;18.50;;;7.20;99.90;;;;;;5080380;28;20223;-76
2021/10/26 05:32:17;;;;;;;19.73;18.03;;;7.20;99.90;;;;;;5080827;28;20195;-76
2021/10/26 05:34:45;;;;;;;19.50;17.90;;;7.20;99.90;;;;;;5084203;28;20287;-76
2021/10/26 05:37:12;;;;;;;20.37;18.67;;;7.20;99.90;;;;;;5082000;28;20196;-76
2021/10/26 05:39:40;;;;;;;20.80;18.90;;;7.20;99.90;;;;;;5082758;28;20227;-76
2021/10/26 05:42:08;;;;;;;19.27;17.57;;;7.20;99.90;;;;;;5081590;28;20228;-76
2021/10/26 05:44:35;;;;;;;19.80;18.00;;;7.20;99.90;;;;;;5077619;28;20208;-76
2021/10/26 05:47:02;;;;;;;19.03;17.33;;;7.20;99.90;;;;;;5080532;28;20287;-76
2021/10/26 05:49:29;;;;;;;20.27;18.53;;;7.20;99.90;;;;;;5084304;28;20277;-76
2021/10/26 05:51:58;;;;;;;20.03;18.23;;;7.20;99.90;;;;;;5084890;28;20192;-76
2021/10/26 05:54:25;;;;;;;18.90;17.23;;;7.30;99.90;;;;;;5081396;28;20195;-76
2021/10/26 05:56:52;;;;;;;19.77;18.07;;;7.30;99.90;;;;;;5084314;28;20247;-76
2021/10/26 05:59:19;;;;;;;19.13;17.60;;;7.30;99.90;;;;;;5084636;28;20252;-76
2021/10/26 06:01:46;;;;;;;18.93;17.33;;;7.30;99.90;;;;;;5078180;28;20241;-76
2021/10/26 06:04:12;;;;;;;19.27;17.77;;;7.40;99.90;;;;;;5079729;28;20199;-76
2021/10/26 06:06:40;;;;;;;18.50;17.00;;;7.40;99.90;;;;;;5081881;28;20208;-76
2021/10/26 06:09:09;;;;;;;18.03;16.53;;;7.50;99.90;;;;;;5080849;28;20224;-76
2021/10/26 06:11:36;;;;;;;16.93;15.63;;;7.50;99.90;;;;;;5081494;28;20286;-76
2021/10/26 06:14:04;;;;;;;17.57;16.20;;;7.60;99.90;;;;;;5078186;28;20197;-76
2021/10/26 06:16:34;;;;;;;16.43;15.20;;;7.60;99.90;;;;;;5083100;28;20200;-75
2021/10/26 06:19:04;;;;;;;17.60;16.20;;;7.60;99.90;;;;;;5081706;28;20270;-76
2021/10/26 06:21:32;;;;;;;17.07;15.73;;;7.70;99.90;;;;;;5078782;28;20241;-76
2021/10/26 06:24:01;;;;;;;17.30;15.90;;;7.70;99.90;;;;;;5079767;28;20259;-76
2021/10/26 06:26:31;;;;;;;18.50;16.90;;;7.80;99.90;;;;;;5081225;28;20703;-76
2021/10/26 06:29:05;;;;;;;18.40;16.80;;;7.80;99.90;;;;;;5082386;28;20211;-76
2021/10/26 06:31:35;;;;;;;19.03;17.43;;;7.90;99.90;;;;;;5082014;28;20650;-76
2021/10/26 06:34:02;;;;;;;18.77;17.27;;;8.00;99.90;;;;;;5082117;28;20258;-76
2021/10/26 06:36:29;;;;;;;19.50;17.87;;;8.00;99.90;;;;;;5082519;28;20696;-77
2021/10/26 06:38:56;;;;;;;19.47;17.87;;;8.10;99.90;;;;;;5078836;28;20212;-76
2021/10/26 06:41:23;;;;;;;19.17;17.60;;;8.20;99.90;;;;;;5083776;28;20238;-76
2021/10/26 06:44:24;;;;;;;19.17;17.60;;;8.20;99.90;;;;;;5046424;28;20268;-76
2021/10/26 06:47:09;;;;;;;18.67;17.17;;;8.20;99.90;;;;;;5073577;28;20206;-76
2021/10/26 06:49:55;;;;;;;22.60;17.60;;;8.20;99.90;;;;;;5073849;28;20238;-76
2021/10/26 06:52:41;;;;;;;18.03;16.53;;;8.30;99.90;;;;;;5081025;28;20212;-76
2021/10/26 06:55:26;;;;;;;18.43;16.83;;;8.30;99.90;;;;;;5080717;28;20212;-76
2021/10/26 06:58:11;;;;;;;15.70;14.37;;;8.20;99.90;;;;;;5081378;28;20704;-76
2021/10/26 07:01:18;;;;;;;18.90;17.10;;;8.20;99.90;;;;;;5076678;28;20201;-76
2021/10/26 07:04:07;;;;;;;18.40;16.80;;;8.20;99.90;;;;;;5080112;28;20195;-76
2021/10/26 07:06:46;;;;;;;16.97;15.57;;;8.30;99.90;;;;;;5081262;28;20192;-76
2021/10/26 07:09:32;;;;;;;10.63;9.13;;;8.30;99.90;;;;;;5082449;28;20236;-76
2021/10/26 07:11:59;;;;;;;10.23;8.80;;;8.30;99.90;;;;;;5074173;28;20191;-76
2021/10/26 07:14:26;;;;;;;10.83;8.40;;;8.40;99.90;;;;;;5080375;28;20674;-76
2021/10/26 07:16:55;;;;;;;14.93;12.87;;;8.40;99.90;;;;;;5080404;28;20197;-76
2021/10/26 07:19:22;;;;;;;12.80;10.57;;;8.40;99.90;;;;;;5083603;28;20665;-76
2021/10/26 07:22:08;;;;;;;11.57;10.43;;;8.40;99.90;;;;;;5076536;28;20232;-76
2021/10/26 07:24:43;;;;;;;11.00;9.63;;;8.50;99.90;;;;;;5079529;28;20201;-76
2021/10/26 07:27:14;;;;;;;11.50;10.33;;;8.50;99.90;;;;;;5078550;28;20227;-77
2021/10/26 07:29:41;;;;;;;11.33;9.43;;;8.60;99.90;;;;;;5080542;28;20218;-76
2021/10/26 07:32:10;;;;;;;10.30;8.43;;;8.70;99.90;;;;;;5079538;28;20277;-76
2021/10/26 07:34:36;;;;;;;10.27;9.13;;;8.80;99.90;;;;;;5080267;28;20612;-76
2021/10/26 07:37:04;;;;;;;12.10;10.40;;;8.80;99.90;;;;;;5077369;28;20202;-77
2021/10/26 07:39:43;;;;;;;11.60;9.80;;;8.80;99.90;;;;;;5074734;28;20293;-76
2021/10/26 07:42:11;;;;;;;10.87;9.47;;;9.00;99.90;;;;;;5082757;28;20216;-76
2021/10/26 07:45:02;;;;;;;10.50;8.70;;;9.00;99.90;;;;;;5073768;28;20197;-76
2021/10/26 07:47:34;;;;;;;10.27;9.03;;;9.10;99.90;;;;;;5077393;28;20198;-76
2021/10/26 07:50:01;;;;;;;11.63;8.90;;;9.30;99.90;;;;;;5084618;28;20214;-76
2021/10/26 07:52:33;;;;;;;11.07;9.80;;;9.40;99.90;;;;;;5080192;28;20286;-76
2021/10/26 07:55:29;;;;;;;11.93;9.10;;;9.60;99.90;;;;;;5081703;28;20206;-76
2021/10/26 07:58:03;;;;;;;11.13;9.10;;;9.80;99.90;;;;;;5082229;28;20198;-77
2021/10/26 08:00:30;;;;;;;11.47;10.00;;;10.40;99.90;;;;;;5080501;28;20198;-78
2021/10/26 08:03:18;;;;;;;20.07;18.37;;;11.10;99.90;;;;;;5083588;28;20209;-77
2021/10/26 08:05:55;;;;;;;11.77;10.50;;;11.60;99.90;;;;;;5091069;28;20202;-77
2021/10/26 08:08:23;;;;;;;14.63;13.33;;;11.90;99.90;;;;;;5083033;28;20217;-77
2021/10/26 08:10:49;;;;;;;13.53;11.87;;;12.00;99.90;;;;;;5070351;28;20248;-77
2021/10/26 08:13:17;;;;;;;13.50;11.83;;;11.90;99.90;;;;;;5079378;28;20192;-77
2021/10/26 08:15:45;;;;;;;13.13;11.90;;;11.90;99.90;;;;;;5081627;28;20256;-77
2021/10/26 08:18:12;;;;;;;10.20;9.20;;;11.90;99.90;;;;;;5073739;28;20696;-76
2021/10/26 08:20:43;;;;;;;9.40;8.40;;;11.90;99.90;;;;;;5081543;28;20207;-76
2021/10/26 08:23:10;;;;;;;10.57;8.30;;;11.90;99.90;;;;;;5079141;28;20763;-77
2021/10/26 08:25:41;;;;;;;8.37;7.50;;;12.00;99.90;;;;;;5075995;28;20201;-77
2021/10/26 08:28:12;;;;;;;10.07;7.77;;;12.00;99.90;;;;;;5078278;28;20228;-76
2021/10/26 08:30:46;;;;;;;13.07;11.93;;;12.10;99.90;;;;;;5079001;28;20201;-77
2021/10/26 08:33:25;;;;;;;9.20;7.20;;;12.20;99.90;;;;;;5078749;28;20277;-77
2021/10/26 08:35:53;;;;;;;14.23;13.23;;;12.30;99.90;;;;;;5104350;27;20254;-77
2021/10/26 08:38:22;;;;;;;9.57;8.73;;;12.50;99.90;;;;;;5112144;27;20201;-77
2021/10/26 08:41:00;;;;;;;7.50;6.10;;;12.70;99.90;;;;;;5078448;28;20197;-77
2021/10/26 08:43:27;;;;;;;11.80;10.70;;;12.90;99.90;;;;;;5081234;28;20274;-77
2021/10/26 08:45:58;;;;;;;8.27;7.50;;;13.10;99.90;;;;;;5077021;28;20212;-77
2021/10/26 08:48:27;;;;;;;11.47;10.40;;;13.20;99.90;;;;;;5076599;28;20275;-77
2021/10/26 08:50:57;;;;;;;13.07;11.97;;;13.30;99.90;;;;;;5081087;28;20193;-77
2021/10/26 08:53:31;;;;;;;12.37;11.37;;;13.30;99.90;;;;;;5078915;28;20194;-77
2021/10/26 08:55:59;;;;;;;12.70;11.70;;;13.40;99.90;;;;;;5072836;28;20191;-77
2021/10/26 08:58:44;;;;;;;9.53;8.50;;;13.30;99.90;;;;;;5080131;28;20229;-77
2021/10/26 09:01:13;;;;;;;9.50;8.60;;;13.20;99.90;;;;;;5078567;28;20637;-77
2021/10/26 09:03:51;;;;;;;14.93;13.93;;;13.10;99.90;;;;;;5078113;28;20215;-77
2021/10/26 09:06:25;;;;;;;15.10;14.00;;;13.20;99.90;;;;;;5080813;28;20198;-77
2021/10/26 09:08:55;;;;;;;13.83;12.73;;;13.40;99.90;;;;;;5068856;28;20217;-77
2021/10/26 09:11:39;;;;;;;11.93;11.07;;;14.00;99.90;;;;;;5075521;28;20194;-76
2021/10/26 09:17:28;;;;;;;10.10;9.20;;;14.70;99.90;;;;;;5075813;28;20237;-77
2021/10/26 09:20:16;;;;;;;9.97;8.53;;;15.30;99.90;;;;;;5076817;28;20304;-77
2021/10/26 09:22:54;;;;;;;8.63;7.83;;;15.70;99.90;;;;;;5081478;28;20227;-77
2021/10/26 09:25:21;;;;;;;8.90;8.03;;;16.00;99.90;;;;;;5079330;28;20194;-77
2021/10/26 09:27:49;;;;;;;10.00;9.10;;;16.00;99.90;;;;;;5081158;28;20599;-76
2021/10/26 09:30:21;;;;;;;8.40;7.47;;;16.00;99.90;;;;;;5073635;28;20234;-77
2021/10/26 09:32:50;;;;;;;8.70;7.90;;;15.90;99.90;;;;;;5081639;28;20193;-77
2021/10/26 09:35:19;;;;;;;7.63;6.30;;;15.90;99.90;;;;;;5082146;28;20260;-77
2021/10/26 09:37:49;;;;;;;7.50;6.80;;;15.90;99.90;;;;;;5076791;28;20235;-77
2021/10/26 09:40:17;;;;;;;8.50;7.70;;;15.90;99.90;;;;;;5078981;28;20273;-77
2021/10/26 09:42:47;;;;;;;10.30;8.97;;;15.90;99.90;;;;;;5084005;28;21146;-77
2021/10/26 09:45:27;;;;;;;8.53;7.67;;;15.80;99.90;;;;;;5083036;28;20716;-78
2021/10/26 09:47:57;;;;;;;9.00;8.10;;;15.80;99.90;;;;;;5111791;27;20258;-77
2021/10/26 09:50:30;;;;;;;9.90;8.80;;;15.90;99.90;;;;;;5086087;28;20213;-78
2021/10/26 09:53:05;;;;;;;10.10;8.53;;;15.80;99.90;;;;;;5074170;28;20192;-77
2021/10/26 09:55:39;;;;;;;7.93;7.23;;;15.80;99.90;;;;;;5079325;28;20200;-77
2021/10/26 09:58:10;;;;;;;8.10;7.50;;;15.90;99.90;;;;;;5079843;28;20208;-77
2021/10/26 10:00:39;;;;;;;7.97;7.20;;;15.90;99.90;;;;;;5083066;28;20671;-77
2021/10/26 10:03:09;;;;;;;8.10;7.40;;;15.90;99.90;;;;;;5082473;28;20261;-77
2021/10/26 10:05:38;;;;;;;8.00;7.20;;;16.00;99.90;;;;;;5081316;28;20203;-77
2021/10/26 10:08:18;;;;;;;7.50;6.87;;;16.00;99.90;;;;;;5082166;28;20549;-76
2021/10/26 10:10:48;;;;;;;12.07;11.07;;;16.10;99.90;;;;;;5085192;28;20206;-77
2021/10/26 10:13:15;;;;;;;12.67;11.87;;;16.10;99.90;;;;;;5083874;28;20192;-77
2021/10/26 10:15:44;;;;;;;14.20;13.10;;;16.00;99.90;;;;;;5079361;28;20558;-77
2021/10/26 10:18:15;;;;;;;13.90;12.90;;;16.00;99.90;;;;;;5080533;28;20568;-77
2021/10/26 10:20:42;;;;;;;13.67;12.77;;;16.00;99.90;;;;;;5082131;28;20192;-78
2021/10/26 10:23:09;;;;;;;12.90;11.90;;;16.20;99.90;;;;;;5081836;28;20209;-77
2021/10/26 10:25:36;;;;;;;13.07;12.27;;;16.50;99.90;;;;;;5083900;28;20209;-77
2021/10/26 10:28:05;;;;;;;10.73;10.00;;;16.70;99.90;;;;;;5082378;28;20201;-79
2021/10/26 10:30:33;;;;;;;9.57;8.93;;;16.90;99.90;;;;;;5085673;28;20243;-77
2021/10/26 10:33:01;;;;;;;10.17;9.27;;;16.90;99.90;;;;;;5081077;28;20192;-77
2021/10/26 10:35:30;;;;;;;11.50;10.70;;;16.90;99.90;;;;;;5079033;28;20210;-77
2021/10/26 10:38:01;;;;;;;12.90;11.90;;;16.80;99.90;;;;;;5080497;28;20205;-77
2021/10/26 10:40:31;;;;;;;13.00;12.10;;;16.70;99.90;;;;;;5081047;28;20202;-77
2021/10/26 10:42:58;;;;;;;13.60;12.70;;;16.70;99.90;;;;;;5074742;28;20474;-77
2021/10/26 10:45:31;;;;;;;12.63;11.80;;;16.70;99.90;;;;;;5082266;28;20667;-77
2021/10/26 10:47:58;;;;;;;11.40;10.63;;;16.70;99.90;;;;;;5077784;28;20243;-77
2021/10/26 10:50:34;;;;;;;12.17;11.27;;;16.70;99.90;;;;;;5084678;28;20278;-77
2021/10/26 10:53:19;;;;;;;9.47;8.77;;;16.70;99.90;;;;;;5082322;28;20193;-78
2021/10/26 10:55:50;;;;;;;9.33;8.53;;;16.70;99.90;;;;;;5077343;28;20205;-77
2021/10/26 10:58:25;;;;;;;12.10;11.30;;;16.50;99.90;;;;;;5077210;28;20259;-77
2021/10/26 11:01:10;;;;;;;13.73;12.63;;;16.50;99.90;;;;;;5073613;28;20190;-77
2021/10/26 11:03:37;;;;;;;12.70;11.80;;;16.50;99.90;;;;;;5082776;28;20264;-77
2021/10/26 11:06:04;;;;;;;12.67;11.77;;;16.40;99.90;;;;;;5083513;28;20197;-77
2021/10/26 11:08:44;;;;;;;13.47;12.43;;;16.40;99.90;;;;;;5080165;28;20216;-77
2021/10/26 11:11:11;;;;;;;12.30;11.40;;;16.40;99.90;;;;;;5081760;28;20251;-77
2021/10/26 11:13:39;;;;;;;12.40;11.50;;;16.40;99.90;;;;;;5083475;28;20229;-77
2021/10/26 11:16:09;;;;;;;12.73;11.83;;;16.40;99.90;;;;;;5080631;28;20240;-77
2021/10/26 11:18:44;;;;;;;12.70;11.80;;;16.40;99.90;;;;;;5076640;28;20313;-77
2021/10/26 11:21:35;;;;;;;13.00;11.90;;;16.40;99.90;;;;;;5078642;28;20657;-77
2021/10/26 11:24:07;;;;;;;12.90;11.90;;;16.30;99.90;;;;;;5075542;28;20692;-77
2021/10/26 11:26:36;;;;;;;12.40;11.50;;;16.30;99.90;;;;;;5074543;28;20253;-77
2021/10/26 11:29:06;;;;;;;13.07;12.00;;;16.30;99.90;;;;;;5080462;28;20222;-77
2021/10/26 11:31:44;;;;;;;12.33;11.50;;;16.30;99.90;;;;;;5082125;28;20205;-78
2021/10/26 11:34:22;;;;;;;12.20;11.30;;;16.30;99.90;;;;;;5079915;28;20225;-77
2021/10/26 11:37:02;;;;;;;12.57;11.70;;;16.40;99.90;;;;;;5077264;28;20253;-77
2021/10/26 11:39:31;;;;;;;11.80;11.10;;;16.40;99.90;;;;;;5075143;28;20282;-77
2021/10/26 11:41:59;;;;;;;11.80;11.00;;;16.40;99.90;;;;;;5079743;28;20197;-77
2021/10/26 11:44:27;;;;;;;12.10;11.30;;;16.50;99.90;;;;;;5080647;28;20216;-78
2021/10/26 11:46:58;;;;;;;12.53;11.73;;;16.50;99.90;;;;;;5084035;28;20262;-77
2021/10/26 11:49:26;;;;;;;12.47;11.63;;;16.50;99.90;;;;;;5087039;28;20225;-77
2021/10/26 11:51:56;;;;;;;11.20;10.40;;;16.60;99.90;;;;;;5084589;28;20199;-77
2021/10/26 11:54:25;;;;;;;11.23;10.53;;;16.70;99.90;;;;;;5080443;28;20193;-78
2021/10/26 11:56:53;;;;;;;11.00;10.30;;;16.80;99.90;;;;;;5090659;28;20806;-77
2021/10/26 11:59:34;;;;;;;11.37;10.60;;;16.90;99.90;;;;;;5066846;28;20270;-77
2021/10/26 12:02:27;;;;;;;11.50;10.80;;;17.00;99.90;;;;;;5094914;28;20667;-77
2021/10/26 12:04:56;;;;;;;11.33;10.63;;;17.10;99.90;;;;;;5077661;28;20206;-77
2021/10/26 12:07:24;;;;;;;11.70;10.90;;;17.10;99.90;;;;;;5077907;28;20194;-77
2021/10/26 12:09:54;;;;;;;11.50;10.70;;;17.10;99.90;;;;;;5086063;28;20225;-77
2021/10/26 12:12:23;;;;;;;11.40;10.70;;;17.00;99.90;;;;;;5079029;28;20227;-77
2021/10/26 12:14:50;;;;;;;11.40;10.60;;;17.00;99.90;;;;;;5078869;28;20194;-77
2021/10/26 12:17:20;;;;;;;11.50;10.80;;;17.00;99.90;;;;;;5078094;28;20284;-77
2021/10/26 12:20:03;;;;;;;11.60;10.80;;;16.90;99.90;;;;;;5074786;28;20694;-77
2021/10/26 12:22:36;;;;;;;11.10;10.30;;;16.90;99.90;;;;;;5081012;28;20204;-77
2021/10/26 12:25:12;;;;;;;11.00;10.30;;;17.00;99.90;;;;;;5080393;28;20235;-77
2021/10/26 12:27:42;;;;;;;11.10;10.37;;;16.90;99.90;;;;;;5076374;28;20213;-77
2021/10/26 12:30:15;;;;;;;11.00;10.30;;;16.90;99.90;;;;;;5078087;28;20218;-77
2021/10/26 12:32:43;;;;;;;10.93;10.23;;;16.80;99.90;;;;;;5082112;28;20201;-77
2021/10/26 12:35:12;;;;;;;11.30;10.50;;;16.70;99.90;;;;;;5079800;28;20199;-77
2021/10/26 12:37:40;;;;;;;11.20;10.40;;;16.70;99.90;;;;;;5074037;28;20206;-77
2021/10/26 12:40:16;;;;;;;11.70;10.90;;;16.70;99.90;;;;;;5080536;28;20213;-77
2021/10/26 12:42:46;;;;;;;11.37;10.60;;;16.70;99.90;;;;;;5075415;28;20667;-77
2021/10/26 12:45:14;;;;;;;11.13;10.43;;;16.80;99.90;;;;;;5081788;28;20314;-77
2021/10/26 12:48:02;;;;;;;11.03;10.33;;;16.80;99.90;;;;;;5079063;28;20250;-77
2021/10/26 12:50:42;;;;;;;11.13;10.43;;;16.70;99.90;;;;;;5079183;28;20207;-77
2021/10/26 12:53:23;;;;;;;11.17;10.40;;;16.60;99.90;;;;;;5079134;28;20207;-77
2021/10/26 12:55:53;;;;;;;11.03;10.33;;;16.60;99.90;;;;;;5071495;28;20186;-77
2021/10/26 12:58:44;;;;;;;11.17;10.37;;;16.50;99.90;;;;;;5077809;28;20202;-77
2021/10/26 13:01:19;;;;;;;11.30;10.40;;;16.50;99.90;;;;;;5073581;28;20244;-77